sensor_id;sensor_type;location;lat;lon;timestamp;pressure;altitude;pressure_sealevel;temperature;humidity
54314;BME280;50746;52.490;13.320;2023-02-03T00:00:13;101600.0;;;13.1;69.7
54314;BME280;50746;52.490;13.320;2023-02-03T00:01:13;101600.0;;;12.9;70.6
54314;BME280;50746;52.490;13.320;2023-02-03T00:02:13;101600.0;;;13.1;70.2
54314;BME280;50746;52.490;13.320;2023-02-03T00:04:13;101590.0;;;12.9;71.0
54314;BME280;50746;52.490;13.320;2023-02-03T00:05:13;101590.0;;;12.8;71.8
54314;BME280;50746;52.490;13.320;2023-02-03T00:06:13;101580.0;;;13.0;71.4
54314;BME280;50746;52.490;13.320;2023-02-03T00:07:13;101580.0;;;12.9;71.3
54314;BME280;50746;52.490;13.320;2023-02-03T00:08:14;101580.0;;;13.1;70.9
54314;BME280;50746;52.490;13.320;2023-02-03T00:11:13;101570.0;;;13.0;71.0
54314;BME280;50746;52.490;13.320;2023-02-03T00:12:13;101570.0;;;13.1;72.0
54314;BME280;50746;52.490;13.320;2023-02-03T00:13:13;101570.0;;;13.0;71.7
54314;BME280;50746;52.490;13.320;2023-02-03T00:14:13;101570.0;;;13.1;72.2
54314;BME280;50746;52.490;13.320;2023-02-03T00:16:13;101570.0;;;12.9;73.5
54314;BME280;50746;52.490;13.320;2023-02-03T00:17:13;101570.0;;;13.0;74.0
54314;BME280;50746;52.490;13.320;2023-02-03T00:18:13;101570.0;;;12.9;74.3
54314;BME280;50746;52.490;13.320;2023-02-03T00:19:13;101570.0;;;12.8;75.8
54314;BME280;50746;52.490;13.320;2023-02-03T00:20:13;101560.0;;;12.9;75.4
54314;BME280;50746;52.490;13.320;2023-02-03T00:23:13;101550.0;;;13.1;76.8
54314;BME280;50746;52.490;13.320;2023-02-03T00:24:13;101550.0;;;12.8;77.5
54314;BME280;50746;52.490;13.320;2023-02-03T00:25:13;101540.0;;;12.7;79.7
54314;BME280;50746;52.490;13.320;2023-02-03T00:26:15;101540.0;;;12.8;80.6
54314;BME280;50746;52.490;13.320;2023-02-03T00:28:13;101540.0;;;12.9;81.2
54314;BME280;50746;52.490;13.320;2023-02-03T00:29:13;101530.0;;;12.8;82.4
54314;BME280;50746;52.490;13.320;2023-02-03T00:30:13;101530.0;;;13.1;81.3
54314;BME280;50746;52.490;13.320;2023-02-03T00:31:14;101530.0;;;13.0;81.8
54314;BME280;50746;52.490;13.320;2023-02-03T00:32:13;101520.0;;;12.9;82.7
54314;BME280;50746;52.490;13.320;2023-02-03T00:33:13;101520.0;;;13.1;83.3
54314;BME280;50746;52.490;13.320;2023-02-03T00:36:13;101520.0;;;13.0;84.2
54314;BME280;50746;52.490;13.320;2023-02-03T00:37:13;101510.0;;;13.1;84.8
54314;BME280;50746;52.490;13.320;2023-02-03T00:38:13;101510.0;;;13.2;83.4
54314;BME280;50746;52.490;13.320;2023-02-03T00:41:13;101500.0;;;13.1;83.4
54314;BME280;50746;52.490;13.320;2023-02-03T00:42:13;101500.0;;;13.2;83.6
54314;BME280;50746;52.490;13.320;2023-02-03T00:43:13;101500.0;;;13.1;84.8
54314;BME280;50746;52.490;13.320;2023-02-03T00:44:13;101490.0;;;13.2;84.0
54314;BME280;50746;52.490;13.320;2023-02-03T00:47:13;101470.0;;;13.1;84.8
54314;BME280;50746;52.490;13.320;2023-02-03T00:48:13;101470.0;;;13.3;84.2
54314;BME280;50746;52.490;13.320;2023-02-03T00:49:13;101480.0;;;13.2;84.5
54314;BME280;50746;52.490;13.320;2023-02-03T00:50:13;101480.0;;;12.9;85.9
54314;BME280;50746;52.490;13.320;2023-02-03T00:51:13;101480.0;;;13.0;86.5
54314;BME280;50746;52.490;13.320;2023-02-03T00:52:13;101480.0;;;12.9;87.2
54314;BME280;50746;52.490;13.320;2023-02-03T00:53:13;101480.0;;;13.1;86.1
54314;BME280;50746;52.490;13.320;2023-02-03T00:56:13;101480.0;;;12.7;88.9
54314;BME280;50746;52.490;13.320;2023-02-03T00:57:13;101470.0;;;12.8;88.5
54314;BME280;50746;52.490;13.320;2023-02-03T00:59:13;101480.0;;;12.9;88.9
54314;BME280;50746;52.490;13.320;2023-02-03T01:01:13;101470.0;;;12.8;89.8
54314;BME280;50746;52.490;13.320;2023-02-03T01:02:13;101470.0;;;12.9;90.3
54314;BME280;50746;52.490;13.320;2023-02-03T01:03:13;101470.0;;;13.0;89.9
54314;BME280;50746;52.490;13.320;2023-02-03T01:04:13;101470.0;;;13.2;88.1
54314;BME280;50746;52.490;13.320;2023-02-03T01:05:13;101460.0;;;13.1;89.2
54314;BME280;50746;52.490;13.320;2023-02-03T01:06:15;101460.0;;;13.2;88.8
54314;BME280;50746;52.490;13.320;2023-02-03T01:07:13;101450.0;;;13.0;88.9
54314;BME280;50746;52.490;13.320;2023-02-03T01:08:13;101450.0;;;12.9;90.2
54314;BME280;50746;52.490;13.320;2023-02-03T01:09:13;101460.0;;;12.8;90.9
54314;BME280;50746;52.490;13.320;2023-02-03T01:10:13;101450.0;;;12.9;90.8
54314;BME280;50746;52.490;13.320;2023-02-03T01:11:14;101450.0;;;12.7;91.9
54314;BME280;50746;52.490;13.320;2023-02-03T01:12:13;101450.0;;;12.8;91.9
54314;BME280;50746;52.490;13.320;2023-02-03T01:13:13;101450.0;;;12.7;92.7
54314;BME280;50746;52.490;13.320;2023-02-03T01:14:13;101450.0;;;12.6;93.1
54314;BME280;50746;52.490;13.320;2023-02-03T01:16:16;101450.0;;;12.5;94.3
54314;BME280;50746;52.490;13.320;2023-02-03T01:17:13;101450.0;;;12.7;93.1
54314;BME280;50746;52.490;13.320;2023-02-03T01:18:13;101440.0;;;12.6;93.5
54314;BME280;50746;52.490;13.320;2023-02-03T01:19:13;101440.0;;;12.9;93.3
54314;BME280;50746;52.490;13.320;2023-02-03T01:20:13;101440.0;;;12.8;92.4
54314;BME280;50746;52.490;13.320;2023-02-03T01:21:14;101440.0;;;12.9;92.4
54314;BME280;50746;52.490;13.320;2023-02-03T01:24:13;101430.0;;;13.0;91.3
54314;BME280;50746;52.490;13.320;2023-02-03T01:25:13;101430.0;;;12.8;92.1
54314;BME280;50746;52.490;13.320;2023-02-03T01:26:15;101430.0;;;12.9;92.5
54314;BME280;50746;52.490;13.320;2023-02-03T01:27:13;101430.0;;;13.0;91.3
54314;BME280;50746;52.490;13.320;2023-02-03T01:28:13;101430.0;;;13.1;91.5
54314;BME280;50746;52.490;13.320;2023-02-03T01:29:13;101430.0;;;13.4;89.2
54314;BME280;50746;52.490;13.320;2023-02-03T01:30:13;101430.0;;;13.1;89.8
54314;BME280;50746;52.490;13.320;2023-02-03T01:31:15;101420.0;;;13.0;90.5
54314;BME280;50746;52.490;13.320;2023-02-03T01:32:13;101420.0;;;13.2;89.9
54314;BME280;50746;52.490;13.320;2023-02-03T01:35:13;101390.0;;;13.4;88.5
54314;BME280;50746;52.490;13.320;2023-02-03T01:37:13;101390.0;;;13.5;87.1
54314;BME280;50746;52.490;13.320;2023-02-03T01:38:13;101390.0;;;13.4;87.5
54314;BME280;50746;52.490;13.320;2023-02-03T01:42:14;101390.0;;;13.2;88.7
54314;BME280;50746;52.490;13.320;2023-02-03T01:43:27;101390.0;;;13.0;90.8
54314;BME280;50746;52.490;13.320;2023-02-03T01:45:13;101380.0;;;13.1;89.2
54314;BME280;50746;52.490;13.320;2023-02-03T01:46:23;101380.0;;;13.2;88.5
54314;BME280;50746;52.490;13.320;2023-02-03T01:50:15;101360.0;;;13.3;87.9
54314;BME280;50746;52.490;13.320;2023-02-03T01:52:13;101350.0;;;13.4;87.0
54314;BME280;50746;52.490;13.320;2023-02-03T01:54:15;101340.0;;;13.3;87.9
54314;BME280;50746;52.490;13.320;2023-02-03T01:55:18;101340.0;;;13.1;88.3
54314;BME280;50746;52.490;13.320;2023-02-03T01:56:13;101340.0;;;13.3;87.2
54314;BME280;50746;52.490;13.320;2023-02-03T01:59:15;101330.0;;;13.1;87.7
54314;BME280;50746;52.490;13.320;2023-02-03T02:00:13;101340.0;;;13.0;87.9
54314;BME280;50746;52.490;13.320;2023-02-03T02:01:13;101340.0;;;12.9;89.2
54314;BME280;50746;52.490;13.320;2023-02-03T02:02:13;101330.0;;;13.0;89.7
54314;BME280;50746;52.490;13.320;2023-02-03T02:03:13;101330.0;;;13.1;88.8
54314;BME280;50746;52.490;13.320;2023-02-03T02:04:13;101340.0;;;12.8;90.1
54314;BME280;50746;52.490;13.320;2023-02-03T02:05:16;101330.0;;;13.2;88.9
54314;BME280;50746;52.490;13.320;2023-02-03T02:06:13;101330.0;;;13.3;88.6
54314;BME280;50746;52.490;13.320;2023-02-03T02:07:13;101330.0;;;13.5;87.2
54314;BME280;50746;52.490;13.320;2023-02-03T02:09:13;101330.0;;;13.2;86.5
54314;BME280;50746;52.490;13.320;2023-02-03T02:10:13;101320.0;;;13.4;87.1
54314;BME280;50746;52.490;13.320;2023-02-03T02:11:13;101320.0;;;12.9;89.0
54314;BME280;50746;52.490;13.320;2023-02-03T02:12:13;101310.0;;;13.0;89.6
54314;BME280;50746;52.490;13.320;2023-02-03T02:14:13;101300.0;;;13.1;88.5
54314;BME280;50746;52.490;13.320;2023-02-03T02:17:21;101290.0;;;12.9;89.8
54314;BME280;50746;52.490;13.320;2023-02-03T02:18:22;101290.0;;;13.0;89.2
54314;BME280;50746;52.490;13.320;2023-02-03T02:20:29;101290.0;;;13.1;89.6
54314;BME280;50746;52.490;13.320;2023-02-03T02:22:17;101280.0;;;13.0;89.6
54314;BME280;50746;52.490;13.320;2023-02-03T02:24:31;101270.0;;;13.1;89.5
54314;BME280;50746;52.490;13.320;2023-02-03T02:25:27;101270.0;;;13.0;90.0
54314;BME280;50746;52.490;13.320;2023-02-03T02:28:28;101260.0;;;12.7;92.0
54314;BME280;50746;52.490;13.320;2023-02-03T02:30:29;101260.0;;;13.1;90.5
54314;BME280;50746;52.490;13.320;2023-02-03T02:33:21;101240.0;;;13.1;90.1
54314;BME280;50746;52.490;13.320;2023-02-03T02:35:18;101230.0;;;13.0;89.1
54314;BME280;50746;52.490;13.320;2023-02-03T02:36:20;101220.0;;;13.1;88.1
54314;BME280;50746;52.490;13.320;2023-02-03T02:37:18;101220.0;;;13.2;87.6
54314;BME280;50746;52.490;13.320;2023-02-03T02:39:18;101210.0;;;12.9;87.8
54314;BME280;50746;52.490;13.320;2023-02-03T02:41:17;101210.0;;;12.7;89.9
54314;BME280;50746;52.490;13.320;2023-02-03T02:45:16;101190.0;;;12.9;90.3
54314;BME280;50746;52.490;13.320;2023-02-03T02:47:16;101190.0;;;12.8;89.8
54314;BME280;50746;52.490;13.320;2023-02-03T02:48:16;101190.0;;;12.9;90.6
54314;BME280;50746;52.490;13.320;2023-02-03T02:49:15;101180.0;;;12.1;92.4
54314;BME280;50746;52.490;13.320;2023-02-03T02:50:15;101190.0;;;11.5;99.6
54314;BME280;50746;52.490;13.320;2023-02-03T02:52:15;101180.0;;;11.6;100.0
54314;BME280;50746;52.490;13.320;2023-02-03T02:53:14;101180.0;;;11.4;100.0
54314;BME280;50746;52.490;13.320;2023-02-03T02:54:15;101180.0;;;11.5;100.0
54314;BME280;50746;52.490;13.320;2023-02-03T02:55:16;101180.0;;;11.6;100.0
54314;BME280;50746;52.490;13.320;2023-02-03T02:56:14;101170.0;;;11.5;100.0
54314;BME280;50746;52.490;13.320;2023-02-03T02:58:15;101180.0;;;11.4;100.0
54314;BME280;50746;52.490;13.320;2023-02-03T03:00:13;101170.0;;;11.6;100.0
54314;BME280;50746;52.490;13.320;2023-02-03T03:04:15;101150.0;;;12.2;100.0
54314;BME280;50746;52.490;13.320;2023-02-03T03:05:13;101150.0;;;12.3;100.0
54314;BME280;50746;52.490;13.320;2023-02-03T03:06:16;101140.0;;;12.4;97.6
54314;BME280;50746;52.490;13.320;2023-02-03T03:07:16;101140.0;;;12.5;96.2
54314;BME280;50746;52.490;13.320;2023-02-03T03:08:15;101150.0;;;12.7;95.5
54314;BME280;50746;52.490;13.320;2023-02-03T03:10:15;101150.0;;;12.4;95.2
54314;BME280;50746;52.490;13.320;2023-02-03T03:11:13;101140.0;;;12.6;96.7
54314;BME280;50746;52.490;13.320;2023-02-03T03:12:16;101140.0;;;12.7;96.0
54314;BME280;50746;52.490;13.320;2023-02-03T03:14:14;101140.0;;;12.6;95.5
54314;BME280;50746;52.490;13.320;2023-02-03T03:15:17;101140.0;;;12.4;99.1
54314;BME280;50746;52.490;13.320;2023-02-03T03:16:23;101140.0;;;12.5;96.3
54314;BME280;50746;52.490;13.320;2023-02-03T03:17:16;101140.0;;;12.1;97.7
54314;BME280;50746;52.490;13.320;2023-02-03T03:18:16;101130.0;;;12.4;99.0
54314;BME280;50746;52.490;13.320;2023-02-03T03:19:15;101120.0;;;12.2;98.8
54314;BME280;50746;52.490;13.320;2023-02-03T03:20:15;101120.0;;;12.1;100.0
54314;BME280;50746;52.490;13.320;2023-02-03T03:21:16;101120.0;;;12.3;100.0
54314;BME280;50746;52.490;13.320;2023-02-03T03:22:15;101110.0;;;12.1;100.0
54314;BME280;50746;52.490;13.320;2023-02-03T03:23:17;101110.0;;;12.4;98.9
54314;BME280;50746;52.490;13.320;2023-02-03T03:24:15;101110.0;;;12.2;99.3
54314;BME280;50746;52.490;13.320;2023-02-03T03:25:15;101100.0;;;12.5;99.3
54314;BME280;50746;52.490;13.320;2023-02-03T03:26:15;101100.0;;;12.6;99.2
54314;BME280;50746;52.490;13.320;2023-02-03T03:27:17;101100.0;;;12.5;99.0
54314;BME280;50746;52.490;13.320;2023-02-03T03:28:16;101100.0;;;12.4;99.7
54314;BME280;50746;52.490;13.320;2023-02-03T03:29:15;101090.0;;;12.3;100.0
54314;BME280;50746;52.490;13.320;2023-02-03T03:30:16;101090.0;;;12.4;99.5
54314;BME280;50746;52.490;13.320;2023-02-03T03:31:13;101080.0;;;12.3;99.6
54314;BME280;50746;52.490;13.320;2023-02-03T03:32:13;101090.0;;;12.4;100.0
54314;BME280;50746;52.490;13.320;2023-02-03T03:34:13;101080.0;;;12.0;100.0
54314;BME280;50746;52.490;13.320;2023-02-03T03:36:18;101080.0;;;12.3;100.0
54314;BME280;50746;52.490;13.320;2023-02-03T03:37:17;101080.0;;;12.2;100.0
54314;BME280;50746;52.490;13.320;2023-02-03T03:38:18;101070.0;;;12.3;100.0
54314;BME280;50746;52.490;13.320;2023-02-03T03:39:16;101070.0;;;12.1;100.0
54314;BME280;50746;52.490;13.320;2023-02-03T03:40:18;101060.0;;;12.3;100.0
54314;BME280;50746;52.490;13.320;2023-02-03T03:41:18;101050.0;;;12.4;100.0
54314;BME280;50746;52.490;13.320;2023-02-03T03:42:18;101060.0;;;12.3;100.0
54314;BME280;50746;52.490;13.320;2023-02-03T03:43:14;101060.0;;;12.4;100.0
54314;BME280;50746;52.490;13.320;2023-02-03T03:46:16;101060.0;;;12.5;100.0
54314;BME280;50746;52.490;13.320;2023-02-03T03:47:16;101060.0;;;12.4;100.0
54314;BME280;50746;52.490;13.320;2023-02-03T03:48:15;101060.0;;;12.5;100.0
54314;BME280;50746;52.490;13.320;2023-02-03T03:49:14;101070.0;;;12.7;99.1
54314;BME280;50746;52.490;13.320;2023-02-03T03:50:15;101060.0;;;12.4;100.0
54314;BME280;50746;52.490;13.320;2023-02-03T03:51:16;101060.0;;;12.6;100.0
54314;BME280;50746;52.490;13.320;2023-02-03T03:52:15;101050.0;;;12.8;99.0
54314;BME280;50746;52.490;13.320;2023-02-03T03:53:15;101050.0;;;12.9;98.1
54314;BME280;50746;52.490;13.320;2023-02-03T03:54:14;101060.0;;;13.0;97.0
54314;BME280;50746;52.490;13.320;2023-02-03T03:55:13;101060.0;;;13.1;96.2
54314;BME280;50746;52.490;13.320;2023-02-03T03:56:24;101060.0;;;12.7;98.5
54314;BME280;50746;52.490;13.320;2023-02-03T03:57:16;101060.0;;;12.5;99.4
54314;BME280;50746;52.490;13.320;2023-02-03T03:59:15;101060.0;;;12.9;98.4
54314;BME280;50746;52.490;13.320;2023-02-03T04:01:14;101050.0;;;12.3;100.0
54314;BME280;50746;52.490;13.320;2023-02-03T04:02:15;101040.0;;;12.8;99.1
54314;BME280;50746;52.490;13.320;2023-02-03T04:04:14;101040.0;;;12.9;98.6
54314;BME280;50746;52.490;13.320;2023-02-03T04:05:13;101050.0;;;12.7;98.7
54314;BME280;50746;52.490;13.320;2023-02-03T04:06:14;101050.0;;;12.9;98.4
54314;BME280;50746;52.490;13.320;2023-02-03T04:07:13;101050.0;;;12.7;99.4
54314;BME280;50746;52.490;13.320;2023-02-03T04:08:13;101040.0;;;13.0;98.6
54314;BME280;50746;52.490;13.320;2023-02-03T04:09:13;101030.0;;;13.1;97.5
54314;BME280;50746;52.490;13.320;2023-02-03T04:11:13;101020.0;;;13.0;98.5
54314;BME280;50746;52.490;13.320;2023-02-03T04:12:20;101010.0;;;12.8;98.8
54314;BME280;50746;52.490;13.320;2023-02-03T04:13:13;101010.0;;;12.4;100.0
54314;BME280;50746;52.490;13.320;2023-02-03T04:14:13;101020.0;;;12.0;100.0
54314;BME280;50746;52.490;13.320;2023-02-03T04:15:13;101010.0;;;12.1;100.0
54314;BME280;50746;52.490;13.320;2023-02-03T04:16:13;101020.0;;;11.8;100.0
54314;BME280;50746;52.490;13.320;2023-02-03T04:17:13;101020.0;;;11.7;100.0
54314;BME280;50746;52.490;13.320;2023-02-03T04:18:14;101020.0;;;11.9;100.0
54314;BME280;50746;52.490;13.320;2023-02-03T04:19:13;101020.0;;;12.3;100.0
54314;BME280;50746;52.490;13.320;2023-02-03T04:20:13;101010.0;;;12.2;100.0
54314;BME280;50746;52.490;13.320;2023-02-03T04:21:13;101010.0;;;12.0;100.0
54314;BME280;50746;52.490;13.320;2023-02-03T04:22:13;101010.0;;;12.3;100.0
54314;BME280;50746;52.490;13.320;2023-02-03T04:23:13;101010.0;;;12.4;100.0
54314;BME280;50746;52.490;13.320;2023-02-03T04:24:13;101010.0;;;12.5;100.0
54314;BME280;50746;52.490;13.320;2023-02-03T04:25:13;101000.0;;;12.4;100.0
54314;BME280;50746;52.490;13.320;2023-02-03T04:26:13;101000.0;;;11.8;100.0
54314;BME280;50746;52.490;13.320;2023-02-03T04:27:13;100990.0;;;12.0;100.0
54314;BME280;50746;52.490;13.320;2023-02-03T04:28:13;100980.0;;;12.1;100.0
54314;BME280;50746;52.490;13.320;2023-02-03T04:29:13;100980.0;;;12.2;100.0
54314;BME280;50746;52.490;13.320;2023-02-03T04:30:13;100980.0;;;12.3;100.0
54314;BME280;50746;52.490;13.320;2023-02-03T04:31:13;100970.0;;;12.1;100.0
54314;BME280;50746;52.490;13.320;2023-02-03T04:32:13;100970.0;;;12.0;100.0
54314;BME280;50746;52.490;13.320;2023-02-03T04:34:13;100970.0;;;12.2;100.0
54314;BME280;50746;52.490;13.320;2023-02-03T04:35:13;100980.0;;;12.1;100.0
54314;BME280;50746;52.490;13.320;2023-02-03T04:36:13;100980.0;;;12.3;100.0
54314;BME280;50746;52.490;13.320;2023-02-03T04:37:13;100970.0;;;12.1;100.0
54314;BME280;50746;52.490;13.320;2023-02-03T04:39:13;100970.0;;;12.2;100.0
54314;BME280;50746;52.490;13.320;2023-02-03T04:40:13;100960.0;;;12.4;100.0
54314;BME280;50746;52.490;13.320;2023-02-03T04:42:13;100960.0;;;12.1;100.0
54314;BME280;50746;52.490;13.320;2023-02-03T04:43:13;100950.0;;;12.6;100.0
54314;BME280;50746;52.490;13.320;2023-02-03T04:45:13;100950.0;;;12.4;100.0
54314;BME280;50746;52.490;13.320;2023-02-03T04:46:13;100950.0;;;12.6;100.0
54314;BME280;50746;52.490;13.320;2023-02-03T04:48:13;100940.0;;;12.7;100.0
54314;BME280;50746;52.490;13.320;2023-02-03T04:51:13;100930.0;;;12.6;100.0
54314;BME280;50746;52.490;13.320;2023-02-03T04:52:14;100920.0;;;12.5;100.0
54314;BME280;50746;52.490;13.320;2023-02-03T04:54:13;100930.0;;;12.7;100.0
54314;BME280;50746;52.490;13.320;2023-02-03T04:55:13;100920.0;;;12.3;100.0
54314;BME280;50746;52.490;13.320;2023-02-03T04:56:13;100920.0;;;11.9;100.0
54314;BME280;50746;52.490;13.320;2023-02-03T04:57:13;100910.0;;;12.0;100.0
54314;BME280;50746;52.490;13.320;2023-02-03T04:58:13;100910.0;;;12.2;100.0
54314;BME280;50746;52.490;13.320;2023-02-03T04:59:13;100910.0;;;12.1;100.0
54314;BME280;50746;52.490;13.320;2023-02-03T05:00:14;100910.0;;;12.2;100.0
54314;BME280;50746;52.490;13.320;2023-02-03T05:02:13;100910.0;;;12.5;100.0
54314;BME280;50746;52.490;13.320;2023-02-03T05:03:13;100920.0;;;12.4;100.0
54314;BME280;50746;52.490;13.320;2023-02-03T05:04:13;100910.0;;;12.6;100.0
54314;BME280;50746;52.490;13.320;2023-02-03T05:05:13;100910.0;;;12.7;100.0
54314;BME280;50746;52.490;13.320;2023-02-03T05:06:13;100910.0;;;12.3;100.0
54314;BME280;50746;52.490;13.320;2023-02-03T05:07:13;100910.0;;;12.4;100.0
54314;BME280;50746;52.490;13.320;2023-02-03T05:08:13;100910.0;;;12.6;100.0
54314;BME280;50746;52.490;13.320;2023-02-03T05:09:13;100900.0;;;12.5;100.0
54314;BME280;50746;52.490;13.320;2023-02-03T05:10:13;100910.0;;;12.8;100.0
54314;BME280;50746;52.490;13.320;2023-02-03T05:11:13;100910.0;;;12.6;100.0
54314;BME280;50746;52.490;13.320;2023-02-03T05:13:13;100910.0;;;12.7;100.0
54314;BME280;50746;52.490;13.320;2023-02-03T05:14:13;100910.0;;;12.8;100.0
54314;BME280;50746;52.490;13.320;2023-02-03T05:16:13;100900.0;;;13.0;100.0
54314;BME280;50746;52.490;13.320;2023-02-03T05:17:13;100900.0;;;12.9;100.0
54314;BME280;50746;52.490;13.320;2023-02-03T05:18:13;100890.0;;;13.0;100.0
54314;BME280;50746;52.490;13.320;2023-02-03T05:19:13;100890.0;;;12.7;100.0
54314;BME280;50746;52.490;13.320;2023-02-03T05:20:13;100890.0;;;12.9;100.0
54314;BME280;50746;52.490;13.320;2023-02-03T05:21:13;100890.0;;;13.1;100.0
54314;BME280;50746;52.490;13.320;2023-02-03T05:23:13;100890.0;;;13.3;100.0
54314;BME280;50746;52.490;13.320;2023-02-03T05:25:13;100880.0;;;13.4;100.0
54314;BME280;50746;52.490;13.320;2023-02-03T05:26:13;100880.0;;;13.0;100.0
54314;BME280;50746;52.490;13.320;2023-02-03T05:28:13;100890.0;;;13.2;100.0
54314;BME280;50746;52.490;13.320;2023-02-03T05:29:13;100890.0;;;13.3;100.0
54314;BME280;50746;52.490;13.320;2023-02-03T05:30:13;100880.0;;;13.1;100.0
54314;BME280;50746;52.490;13.320;2023-02-03T05:31:13;100880.0;;;13.5;100.0
54314;BME280;50746;52.490;13.320;2023-02-03T05:32:13;100880.0;;;13.7;100.0
54314;BME280;50746;52.490;13.320;2023-02-03T05:33:13;100880.0;;;13.1;100.0
54314;BME280;50746;52.490;13.320;2023-02-03T05:34:13;100880.0;;;12.9;100.0
54314;BME280;50746;52.490;13.320;2023-02-03T05:35:13;100880.0;;;12.7;100.0
54314;BME280;50746;52.490;13.320;2023-02-03T05:36:13;100880.0;;;12.6;100.0
54314;BME280;50746;52.490;13.320;2023-02-03T05:37:13;100870.0;;;13.2;100.0
54314;BME280;50746;52.490;13.320;2023-02-03T05:38:13;100870.0;;;13.4;100.0
54314;BME280;50746;52.490;13.320;2023-02-03T05:39:13;100860.0;;;13.5;100.0
54314;BME280;50746;52.490;13.320;2023-02-03T05:40:13;100860.0;;;13.4;100.0
54314;BME280;50746;52.490;13.320;2023-02-03T05:41:13;100860.0;;;13.2;100.0
54314;BME280;50746;52.490;13.320;2023-02-03T05:42:13;100860.0;;;13.3;100.0
54314;BME280;50746;52.490;13.320;2023-02-03T05:43:13;100860.0;;;13.1;100.0
54314;BME280;50746;52.490;13.320;2023-02-03T05:44:13;100850.0;;;13.6;100.0
54314;BME280;50746;52.490;13.320;2023-02-03T05:46:13;100860.0;;;13.8;100.0
54314;BME280;50746;52.490;13.320;2023-02-03T05:48:13;100850.0;;;14.0;100.0
54314;BME280;50746;52.490;13.320;2023-02-03T05:49:13;100850.0;;;13.7;100.0
54314;BME280;50746;52.490;13.320;2023-02-03T05:52:13;100840.0;;;13.6;100.0
54314;BME280;50746;52.490;13.320;2023-02-03T05:53:13;100830.0;;;13.8;100.0
54314;BME280;50746;52.490;13.320;2023-02-03T05:54:14;100830.0;;;13.7;100.0
54314;BME280;50746;52.490;13.320;2023-02-03T05:56:13;100830.0;;;13.3;100.0
54314;BME280;50746;52.490;13.320;2023-02-03T05:57:13;100820.0;;;13.8;100.0
54314;BME280;50746;52.490;13.320;2023-02-03T05:58:13;100830.0;;;13.7;100.0
54314;BME280;50746;52.490;13.320;2023-02-03T05:59:13;100830.0;;;13.4;100.0
54314;BME280;50746;52.490;13.320;2023-02-03T06:00:13;100830.0;;;13.1;100.0
54314;BME280;50746;52.490;13.320;2023-02-03T06:01:13;100820.0;;;13.4;100.0
54314;BME280;50746;52.490;13.320;2023-02-03T06:03:13;100820.0;;;13.7;100.0
54314;BME280;50746;52.490;13.320;2023-02-03T06:04:13;100810.0;;;13.8;100.0
54314;BME280;50746;52.490;13.320;2023-02-03T06:06:13;100800.0;;;14.1;100.0
54314;BME280;50746;52.490;13.320;2023-02-03T06:07:13;100800.0;;;14.2;100.0
54314;BME280;50746;52.490;13.320;2023-02-03T06:08:13;100790.0;;;13.6;100.0
54314;BME280;50746;52.490;13.320;2023-02-03T06:09:13;100790.0;;;14.0;100.0
54314;BME280;50746;52.490;13.320;2023-02-03T06:11:13;100790.0;;;13.6;100.0
54314;BME280;50746;52.490;13.320;2023-02-03T06:12:13;100790.0;;;13.8;100.0
54314;BME280;50746;52.490;13.320;2023-02-03T06:13:14;100780.0;;;13.7;100.0
54314;BME280;50746;52.490;13.320;2023-02-03T06:14:13;100790.0;;;13.6;100.0
54314;BME280;50746;52.490;13.320;2023-02-03T06:16:13;100780.0;;;13.9;100.0
54314;BME280;50746;52.490;13.320;2023-02-03T06:17:13;100780.0;;;14.0;100.0
54314;BME280;50746;52.490;13.320;2023-02-03T06:18:13;100780.0;;;13.8;100.0
54314;BME280;50746;52.490;13.320;2023-02-03T06:19:13;100790.0;;;14.1;100.0
54314;BME280;50746;52.490;13.320;2023-02-03T06:21:13;100770.0;;;13.8;100.0
54314;BME280;50746;52.490;13.320;2023-02-03T06:22:13;100770.0;;;14.1;100.0
54314;BME280;50746;52.490;13.320;2023-02-03T06:23:13;100780.0;;;14.3;100.0
54314;BME280;50746;52.490;13.320;2023-02-03T06:24:13;100770.0;;;14.1;100.0
54314;BME280;50746;52.490;13.320;2023-02-03T06:26:13;100780.0;;;13.7;100.0
54314;BME280;50746;52.490;13.320;2023-02-03T06:27:13;100760.0;;;14.0;100.0
54314;BME280;50746;52.490;13.320;2023-02-03T06:28:13;100770.0;;;14.4;100.0
54314;BME280;50746;52.490;13.320;2023-02-03T06:29:13;100780.0;;;14.2;100.0
54314;BME280;50746;52.490;13.320;2023-02-03T06:30:13;100770.0;;;13.4;100.0
54314;BME280;50746;52.490;13.320;2023-02-03T06:31:13;100770.0;;;13.8;100.0
54314;BME280;50746;52.490;13.320;2023-02-03T06:32:13;100770.0;;;14.0;100.0
54314;BME280;50746;52.490;13.320;2023-02-03T06:33:13;100780.0;;;13.9;100.0
54314;BME280;50746;52.490;13.320;2023-02-03T06:34:13;100780.0;;;14.1;100.0
54314;BME280;50746;52.490;13.320;2023-02-03T06:36:13;100780.0;;;13.9;100.0
54314;BME280;50746;52.490;13.320;2023-02-03T06:37:13;100780.0;;;13.7;100.0
54314;BME280;50746;52.490;13.320;2023-02-03T06:38:13;100780.0;;;14.1;100.0
54314;BME280;50746;52.490;13.320;2023-02-03T06:39:13;100780.0;;;14.0;100.0
54314;BME280;50746;52.490;13.320;2023-02-03T06:40:13;100770.0;;;14.3;100.0
54314;BME280;50746;52.490;13.320;2023-02-03T06:41:13;100770.0;;;13.9;100.0
54314;BME280;50746;52.490;13.320;2023-02-03T06:42:13;100770.0;;;13.8;100.0
54314;BME280;50746;52.490;13.320;2023-02-03T06:43:13;100770.0;;;13.9;100.0
54314;BME280;50746;52.490;13.320;2023-02-03T06:44:13;100760.0;;;14.3;100.0
54314;BME280;50746;52.490;13.320;2023-02-03T06:46:13;100770.0;;;14.1;100.0
54314;BME280;50746;52.490;13.320;2023-02-03T06:47:13;100760.0;;;14.2;100.0
54314;BME280;50746;52.490;13.320;2023-02-03T06:48:13;100770.0;;;14.1;100.0
54314;BME280;50746;52.490;13.320;2023-02-03T06:49:13;100760.0;;;13.8;100.0
54314;BME280;50746;52.490;13.320;2023-02-03T06:50:14;100750.0;;;13.7;100.0
54314;BME280;50746;52.490;13.320;2023-02-03T06:51:13;100750.0;;;14.1;100.0
54314;BME280;50746;52.490;13.320;2023-02-03T06:54:13;100740.0;;;13.9;100.0
54314;BME280;50746;52.490;13.320;2023-02-03T06:55:13;100740.0;;;13.8;100.0
54314;BME280;50746;52.490;13.320;2023-02-03T06:58:13;100750.0;;;13.9;100.0
54314;BME280;50746;52.490;13.320;2023-02-03T06:59:13;100740.0;;;14.0;100.0